Capitol Logistics 463


KRIV
March Air Reserve Base
Riverside, California, US
KTPA
Tampa International Airport
Tampa, Florida, US

Activity Log

Date Flight Route Aircraft Duration
10/16/2019 CPX463 TRM J169 TFD J50 SSO J4 EWM SJT CLL DAS LEV Y280 CHRGE SIMMR BLOND5 B738 4h 46m
09/01/2019 CPX463 TRM J169 TFD J50 SSO J4 EWM SJT CLL DAS LEV Y280 CHRGE SIMMR BLOND5 B738 4h 37m

Route Details

Aircraft Information
Primary: Boeing 737-800BCF
Backup: Not Available
Route Data
Distance: 1817nm
Sched. Duration: 4h 04m
Avg. Duration: 4h 42m (+38m)
Times Flown: 2
Recm'd Route: TRM J169 TFD J50 SSO J4 EWM SJT CLL DAS LEV Y280 CHRGE SIMMR BLOND5
Planned Altitude: 33,000ft
Origin Wx: KRIV 251958Z 31018G23KT 10SM FEW045 SCT050 SCT070 BKN170 09/M01 A2969 RMK AO2A SLP055 T00921012
Dest. Wx: KTPA 251953Z 19007KT 10SM BKN250 25/18 A2999 RMK AO2 SLP155 T02500183
Notes:

Financial History
Total Freight: 81,312lbs
Average Load: 40,656lbs/flt
Fuel Used: 50,120lbs
Avg. Fuel Used: 25,060lbs/flt
Fuel Expense: $34,583
Avg. Fuel Expense: $17,291
Avg. Fuel Cost: $0.69/lbs
Total Gross Income: $106,519
Pilot Pay: $458
Total Expenses: $11,608
Total Revenue: $57,982
Average Revenue: $53,259.36